MSC Bremen — A8LK7 — position and weather

sailwx.info

Track history (hours):
 
Tides and Currents Weather Stations Pressure Air Temp Water Temp Dewpoint Dewpoint Depression Visibility Wind Speed Wind Dir Waves Ship Positions

MSC Bremen

Last reported at 2017-Sep-20 18:28 UTC. Time now 2017-Sep-20 18:44 UTC.
Position N 51°58' E 001°18'.

Length 294 m; ; draft 13.7 m.

Type: Ship (hazmat cat B). MMSI: 636091270.

Date/timePositionNaut miles runAvg speedWind from/ knotsBaromVisibWave heightAir tempDewpointWater temp
2017-Sep-20 18:28N 51°58' E 001°18'0 0.0
2017-Sep-20 17:58N 51°58' E 001°18'0 0.0
2017-Sep-20 17:28N 51°58' E 001°18'0 0.0
2017-Sep-20 16:58N 51°58' E 001°18'0 0.0
2017-Sep-20 16:28N 51°58' E 001°18'0 0.0
2017-Sep-20 15:58N 51°58' E 001°18'0 0.0
2017-Sep-20 15:28N 51°58' E 001°18'0 0.0
2017-Sep-20 14:58N 51°58' E 001°18'0 0.0
2017-Sep-20 13:58N 51°58' E 001°18'0 0.0
2017-Sep-20 13:28N 51°58' E 001°18'0 0.0
2017-Sep-20 12:58N 51°58' E 001°18'0 0.0
2017-Sep-20 12:28N 51°58' E 001°18'0 0.0
2017-Sep-20 11:58N 51°58' E 001°18'0 0.0
2017-Sep-20 11:28N 51°58' E 001°18'0 0.0
2017-Sep-20 10:58N 51°58' E 001°18'0 0.0
2017-Sep-20 10:28N 51°58' E 001°18'0 0.1
2017-Sep-20 10:00N 51°58' E 001°18'1 2.0
2017-Sep-20 09:31N 51°57' E 001°19'5 9.9
2017-Sep-20 09:00N 51°56' E 001°27'510.1
2017-Sep-20 08:30N 51°56' E 001°35'5 9.7
2017-Sep-20 08:01N 51°52' E 001°35'4 8.0
2017-Sep-20 07:31N 51°52' E 001°42'4 7.4
2017-Sep-20 07:00N 51°55' E 001°43'2 4.0
2017-Sep-20 06:31N 51°57' E 001°41'1 2.1
2017-Sep-20 06:01N 51°57' E 001°43'3 6.2
2017-Sep-20 05:30N 51°57' E 001°48'510.0
2017-Sep-20 05:00N 51°52' E 001°48'4 8.7
2017-Sep-20 04:30N 51°47' E 001°48'5 9.0
2017-Sep-20 04:00N 51°43' E 001°48'4 8.8
2017-Sep-20 03:30N 51°39' E 001°50'4 8.8
2017-Sep-20 03:00N 51°34' E 001°52'510.5
2017-Sep-20 02:30N 51°30' E 001°55'510.5
2017-Sep-20 02:01N 51°25' E 002°00'5 9.8
2017-Sep-20 01:30N 51°22' E 002°05'5 9.4
2017-Sep-20 01:00N 51°17' E 002°07'5 9.9
2017-Sep-20 00:30N 51°13' E 002°01'510.8
2017-Sep-20 00:00N 51°11' E 001°54'611.4
2017-Sep-19 23:31N 51°07' E 001°47'612.3
2017-Sep-19 23:01N 51°03' E 001°40'713.4
2017-Sep-19 22:30N 50°58' E 001°33'612.9
2017-Sep-19 22:00N 50°52' E 001°28'712.6
2017-Sep-19 21:29N 50°46' E 001°25'612.2
2017-Sep-19 20:58N 50°40' E 001°20'612.6
2017-Sep-19 20:30N 50°36' E 001°13'1212.5
2017-Sep-19 19:33N 50°29' E 000°59'112.4
2017-Sep-19 19:31N 50°29' E 000°58'612.9
2017-Sep-19 19:01N 50°27' E 000°48'713.6
2017-Sep-19 18:28N 50°25' E 000°37'613.2
2017-Sep-19 17:59N 50°24' E 000°27'612.8
2017-Sep-19 17:30N 50°22' E 000°18'713.0
2017-Sep-19 17:00N 50°20' E 000°08'713.6
2017-Sep-19 16:31N 50°19' W 000°02'714.0
2017-Sep-19 16:00N 50°17' W 000°13'3517.2
2017-Sep-19 13:58N 50°07' W 001°05'817.0
2017-Sep-19 13:31N 50°05' W 001°17'816.7
2017-Sep-19 13:00N 50°03' W 001°29'816.5
2017-Sep-19 12:30N 50°00' W 001°41'815.8
2017-Sep-19 12:01N 49°59' W 001°54'713.7
2017-Sep-19 11:31N 49°57' W 002°04'714.0
2017-Sep-19 11:00N 49°55' W 002°14'914.0
2017-Sep-19 10:22N 49°53' W 002°28'514.1
2017-Sep-19 10:00N 49°52' W 002°35'714.4
2017-Sep-19 09:30N 49°50' W 002°46'714.6
2017-Sep-19 09:00N 49°48' W 002°57'714.8
2017-Sep-19 08:30N 49°45' W 003°07'714.8
2017-Sep-19 08:00N 49°41' W 003°17'714.9
2017-Sep-19 07:30N 49°37' W 003°27'815.0
2017-Sep-19 06:59N 49°33' W 003°37'715.1
2017-Sep-19 06:30N 49°29' W 003°47'815.3
2017-Sep-19 06:00N 49°25' W 003°56'915.4
2017-Sep-19 05:25N 49°20' W 004°08'615.7
2017-Sep-19 05:00N 49°16' W 004°16'2216.1
2017-Sep-19 03:39N 49°05' W 004°45'216.4
2017-Sep-19 03:30N 49°04' W 004°48'816.4
2017-Sep-19 03:00N 49°00' W 004°59'816.3
2017-Sep-19 02:30N 48°56' W 005°10'816.2
2017-Sep-19 02:00N 48°52' W 005°21'816.0
2017-Sep-19 01:30N 48°48' W 005°31'815.5
2017-Sep-19 01:00N 48°43' W 005°40'815.4
2017-Sep-19 00:30N 48°36' W 005°45'57615.6
2017-Sep-17 11:28N 39°27' W 009°49'816.5
2017-Sep-17 11:00N 39°19' W 009°50'816.7
2017-Sep-17 10:30N 39°11' W 009°50'816.4
2017-Sep-17 10:00N 39°03' W 009°51'816.4
2017-Sep-17 09:30N 38°55' W 009°51'816.5
2017-Sep-17 09:00N 38°46' W 009°51'816.4
2017-Sep-17 08:30N 38°38' W 009°49'815.9
2017-Sep-17 08:00N 38°31' W 009°46'816.0
2017-Sep-17 07:30N 38°24' W 009°41'816.4
2017-Sep-17 07:00N 38°18' W 009°33'816.2
2017-Sep-17 06:30N 38°13' W 009°25'816.3
2017-Sep-17 06:00N 38°08' W 009°17'816.3
2017-Sep-17 05:30N 38°03' W 009°09'816.8
2017-Sep-17 05:00N 37°58' W 009°01'815.0
2017-Sep-17 04:30N 37°54' W 008°52'2 3.8
2017-Sep-17 03:58N 37°56' W 008°51'0 0.0
2017-Sep-17 03:28N 37°56' W 008°51'0 0.0
2017-Sep-17 02:58N 37°56' W 008°51'0 0.0
2017-Sep-17 02:28N 37°56' W 008°51'0 0.0
2017-Sep-17 01:58N 37°56' W 008°51'0 0.0
2017-Sep-17 01:28N 37°56' W 008°51'0 0.0
2017-Sep-17 00:58N 37°56' W 008°51'0 0.0
2017-Sep-17 00:28N 37°56' W 008°51'0 0.0
2017-Sep-16 23:58N 37°56' W 008°51'0 0.1
2017-Sep-16 23:30N 37°56' W 008°51'1 2.5
2017-Sep-16 23:00N 37°55' W 008°51'2 3.1
2017-Sep-16 22:30N 37°53' W 008°51'2 4.9
2017-Sep-16 22:00N 37°52' W 008°54'3 5.3
2017-Sep-16 21:30N 37°49' W 008°55'3 5.8
2017-Sep-16 21:00N 37°47' W 008°57'3 5.6
2017-Sep-16 20:30N 37°44' W 008°59'3 5.8
2017-Sep-16 20:00N 37°42' W 009°00'611.4
2017-Sep-16 19:30N 37°37' W 009°04'612.3
2017-Sep-16 19:00N 37°31' W 009°07'612.5
2017-Sep-16 18:30N 37°26' W 009°10'612.2
2017-Sep-16 18:00N 37°20' W 009°14'612.2
2017-Sep-16 17:30N 37°15' W 009°18'612.2
2017-Sep-16 17:00N 37°09' W 009°20'612.6
2017-Sep-16 16:30N 37°03' W 009°20'712.5
2017-Sep-16 15:57N 36°56' W 009°20'912.5
2017-Sep-16 15:14N 36°48' W 009°14'713.2
2017-Sep-16 14:40N 36°44' W 009°07'313.9
2017-Sep-16 14:28N 36°43' W 009°04'613.9
2017-Sep-16 14:00N 36°41' W 008°56'713.7
2017-Sep-16 13:30N 36°39' W 008°48'713.7
2017-Sep-16 13:00N 36°36' W 008°40'714.1
2017-Sep-16 12:30N 36°34' W 008°32'815.0
2017-Sep-16 12:00N 36°32' W 008°23'715.0
2017-Sep-16 11:30N 36°29' W 008°14'1214.9
2017-Sep-16 10:43N 36°26' W 007°60'1517.0
2017-Sep-16 09:49N 36°22' W 007°42'10419.0
2017-Sep-16 04:22N 35°58' W 005°36'412.1
2017-Sep-16 04:00N 35°59' W 005°31'612.1
2017-Sep-16 03:30N 36°01' W 005°24'713.3
2017-Sep-16 03:00N 36°02' W 005°16'815.8
2017-Sep-16 02:30N 36°04' W 005°06'25718.1
2017-Sep-15 12:17N 36°42' E 000°09'718.6
2017-Sep-15 11:56N 36°43' E 000°17'919.1
2017-Sep-15 11:27N 36°45' E 000°28'5816.9
2017-Sep-15 07:59N 36°56' E 001°40'1317.1
2017-Sep-15 07:14N 36°59' E 001°56'2119.7
2017-Sep-15 06:09N 37°02' E 002°22'519.7
2017-Sep-15 05:54N 37°03' E 002°28'919.7
2017-Sep-15 05:28N 37°05' E 002°39'26520.0
2017-Sep-14 16:14N 37°41' E 008°10'1020.8
2017-Sep-14 15:45N 37°41' E 008°22'720.6
2017-Sep-14 15:24N 37°41' E 008°31'820.3
2017-Sep-14 15:00N 37°42' E 008°42'1420.0
2017-Sep-14 14:18N 37°42' E 008°59'1520.0
2017-Sep-14 13:34N 37°42' E 009°18'2519.8
2017-Sep-14 12:19N 37°41' E 009°49'3919.9
2017-Sep-14 10:21N 37°35' E 010°38'10120.1
2017-Sep-14 05:20N 36°59' E 012°36'619.5
2017-Sep-14 05:01N 36°57' E 012°44'1019.2
2017-Sep-14 04:30N 36°53' E 012°55'1019.6
2017-Sep-14 04:00N 36°49' E 013°06'1019.5
2017-Sep-14 03:30N 36°45' E 013°17'1019.5
2017-Sep-14 03:00N 36°41' E 013°28'1019.4
2017-Sep-14 02:30N 36°37' E 013°39'919.3
2017-Sep-14 02:00N 36°34' E 013°50'1019.2
2017-Sep-14 01:30N 36°32' E 014°02'919.1
2017-Sep-14 01:00N 36°29' E 014°13'1019.2
2017-Sep-14 00:30N 36°25' E 014°24'1019.4
2017-Sep-14 00:00N 36°22' E 014°36'1019.4
2017-Sep-13 23:30N 36°19' E 014°47'1019.5
2017-Sep-13 23:00N 36°15' E 014°58'1019.8
2017-Sep-13 22:30N 36°14' E 015°11'1020.2
2017-Sep-13 22:00N 36°14' E 015°23'1020.3
2017-Sep-13 21:30N 36°14' E 015°36'1020.3
2017-Sep-13 21:00N 36°13' E 015°48'1020.2
2017-Sep-13 20:30N 36°13' E 016°01'1020.2
2017-Sep-13 20:00N 36°13' E 016°13'2719.7
2017-Sep-13 18:38N 36°12' E 016°47'219.9
2017-Sep-13 18:30N 36°12' E 016°50'1319.9
2017-Sep-13 17:51N 36°10' E 017°06'1019.9
2017-Sep-13 17:20N 36°10' E 017°19'1120.2
2017-Sep-13 16:47N 36°10' E 017°32'31016.3
2017-Sep-12 21:47N 37°29' E 023°48'620.7
2017-Sep-12 21:30N 37°34' E 023°45'1020.6
2017-Sep-12 21:00N 37°44' E 023°40'1019.7
2017-Sep-12 20:30N 37°53' E 023°36'4 8.3
2017-Sep-12 19:59N 37°57' E 023°36'0 0.0
2017-Sep-12 19:29N 37°57' E 023°36'0 0.0
2017-Sep-12 18:59N 37°57' E 023°36'0 0.0
2017-Sep-12 18:29N 37°57' E 023°36'0 0.0
2017-Sep-12 17:59N 37°57' E 023°36'0 0.0
2017-Sep-12 17:29N 37°57' E 023°36'0 0.0
2017-Sep-12 16:59N 37°57' E 023°36'0 0.0
2017-Sep-12 16:29N 37°57' E 023°36'0 0.0
2017-Sep-12 15:59N 37°57' E 023°36'0 0.0
2017-Sep-12 15:29N 37°57' E 023°36'0 0.0
2017-Sep-12 14:59N 37°57' E 023°36'0 0.0
2017-Sep-12 14:29N 37°57' E 023°36'0 0.0
2017-Sep-12 13:59N 37°57' E 023°36'0 0.0
2017-Sep-12 13:29N 37°57' E 023°36'0 0.0
2017-Sep-12 12:59N 37°57' E 023°36'0 0.0
2017-Sep-12 12:29N 37°57' E 023°36'0 0.0
2017-Sep-12 11:59N 37°57' E 023°36'0 0.0
2017-Sep-12 11:29N 37°57' E 023°36'0 0.0
2017-Sep-12 10:59N 37°57' E 023°36'0 0.0
2017-Sep-12 10:29N 37°57' E 023°36'0 0.0
2017-Sep-12 09:59N 37°57' E 023°36'0 0.0
2017-Sep-12 09:29N 37°57' E 023°36'0 0.0
2017-Sep-12 08:59N 37°57' E 023°36'0 0.0
2017-Sep-12 08:29N 37°57' E 023°36'0 0.0
2017-Sep-12 07:59N 37°57' E 023°36'0 0.1
2017-Sep-12 07:29N 37°57' E 023°36'0 0.1
2017-Sep-12 06:59N 37°57' E 023°36'0 0.0
2017-Sep-12 06:30N 37°57' E 023°36'0 0.8
2017-Sep-12 06:00N 37°57' E 023°36'2 4.8
2017-Sep-12 05:30N 37°54' E 023°36'1 1.5
2017-Sep-12 05:00N 37°54' E 023°36'0 0.4
2017-Sep-12 04:30N 37°54' E 023°35'2 3.6
2017-Sep-12 04:00N 37°52' E 023°34'2 3.9
2017-Sep-12 03:29N 37°53' E 023°31'0 0.2
2017-Sep-12 02:59N 37°53' E 023°31'0 0.1
2017-Sep-12 02:29N 37°53' E 023°31'0 0.0
2017-Sep-12 01:59N 37°53' E 023°31'0 0.1
2017-Sep-12 01:29N 37°53' E 023°31'0 0.0
2017-Sep-12 00:59N 37°53' E 023°31'0 0.1
2017-Sep-12 00:29N 37°53' E 023°31'0 0.1
2017-Sep-11 23:59N 37°53' E 023°31'0 0.0
2017-Sep-11 23:29N 37°53' E 023°31'0 0.1
2017-Sep-11 22:59N 37°53' E 023°31'0 0.4
2017-Sep-11 22:29N 37°53' E 023°31'0 0.4
2017-Sep-11 21:59N 37°53' E 023°31'0 0.0
2017-Sep-11 21:29N 37°53' E 023°31'0 0.0
2017-Sep-11 20:59N 37°53' E 023°31'0 0.0
2017-Sep-11 20:29N 37°53' E 023°31'0 0.0
2017-Sep-11 19:59N 37°53' E 023°31'0 0.1
2017-Sep-11 19:29N 37°53' E 023°31'0 0.0
2017-Sep-11 18:59N 37°53' E 023°31'0 0.0
2017-Sep-11 18:29N 37°53' E 023°31'0 0.0
2017-Sep-11 17:59N 37°53' E 023°31'0 0.1
2017-Sep-11 17:29N 37°53' E 023°31'0 0.0
2017-Sep-11 16:59N 37°53' E 023°31'0 0.0
2017-Sep-11 16:29N 37°53' E 023°31'0 0.0
2017-Sep-11 15:59N 37°53' E 023°31'0 0.0
2017-Sep-11 15:29N 37°53' E 023°31'0 0.1
2017-Sep-11 14:59N 37°53' E 023°31'0 0.0
2017-Sep-11 14:29N 37°53' E 023°31'0 0.0
2017-Sep-11 13:59N 37°53' E 023°31'0 0.0
2017-Sep-11 13:29N 37°53' E 023°31'0 0.1
2017-Sep-11 12:59N 37°53' E 023°31'0 0.0
2017-Sep-11 12:29N 37°53' E 023°31'0 0.0
2017-Sep-11 11:59N 37°53' E 023°31'0 0.0
2017-Sep-11 11:29N 37°53' E 023°31'0 0.0
2017-Sep-11 10:59N 37°53' E 023°31'0 0.0
2017-Sep-11 10:29N 37°53' E 023°31'0 0.0
2017-Sep-11 09:59N 37°53' E 023°31'0 0.1
2017-Sep-11 09:29N 37°53' E 023°31'0 0.0
2017-Sep-11 08:59N 37°53' E 023°31'0 0.0
2017-Sep-11 08:29N 37°53' E 023°31'0 0.0
2017-Sep-11 07:59N 37°53' E 023°31'0 0.0
2017-Sep-11 07:29N 37°53' E 023°31'0 0.0
2017-Sep-11 06:59N 37°53' E 023°31'0 0.1
2017-Sep-11 06:29N 37°53' E 023°31'0 0.0
2017-Sep-11 05:59N 37°53' E 023°31'0 0.0
2017-Sep-11 05:29N 37°53' E 023°31'0 0.0
2017-Sep-11 04:59N 37°53' E 023°31'0 0.0
2017-Sep-11 04:29N 37°53' E 023°31'0 0.0
2017-Sep-11 03:59N 37°53' E 023°31'0 0.1
2017-Sep-11 03:29N 37°53' E 023°31'0 0.0
2017-Sep-11 02:59N 37°53' E 023°31'0 0.0
2017-Sep-11 02:29N 37°53' E 023°31'0 0.0
2017-Sep-11 01:59N 37°53' E 023°31'0 0.1
2017-Sep-11 01:29N 37°53' E 023°31'0 0.0
2017-Sep-11 00:59N 37°53' E 023°31'0 0.0
2017-Sep-11 00:29N 37°53' E 023°31'0 0.0
2017-Sep-10 23:59N 37°53' E 023°31'0 0.1
2017-Sep-10 23:29N 37°53' E 023°31'0 0.1
2017-Sep-10 22:59N 37°53' E 023°31'0 0.0
2017-Sep-10 22:29N 37°53' E 023°31'0 0.0
2017-Sep-10 21:59N 37°53' E 023°31'0 0.0
2017-Sep-10 21:29N 37°53' E 023°31'0 0.1
2017-Sep-10 20:59N 37°53' E 023°31'0 0.0
2017-Sep-10 20:29N 37°53' E 023°31'0 0.0
2017-Sep-10 19:59N 37°53' E 023°31'0 0.0
2017-Sep-10 19:29N 37°53' E 023°31'0 0.0
2017-Sep-10 18:59N 37°53' E 023°31'0 0.0
2017-Sep-10 18:29N 37°53' E 023°31'  
Track history (hours):
 
Tides and Currents Weather Stations Pressure Air Temp Water Temp Dewpoint Dewpoint Depression Visibility Wind Speed Wind Dir Waves Ship Positions

MSC Bremen

Last reported at 2017-Sep-20 18:28 UTC. Time now 2017-Sep-20 18:44 UTC.
Position N 51°58' E 001°18'.

Length 294 m; ; draft 13.7 m.

Type: Ship (hazmat cat B). MMSI: 636091270.

Date/timePositionNaut miles runAvg speedWind from/ knotsBaromVisibWave heightAir tempDewpointWater temp
2017-Sep-20 18:28N 51°58' E 001°18'0 0.0
2017-Sep-20 17:58N 51°58' E 001°18'0 0.0
2017-Sep-20 17:28N 51°58' E 001°18'0 0.0
2017-Sep-20 16:58N 51°58' E 001°18'0 0.0
2017-Sep-20 16:28N 51°58' E 001°18'0 0.0
2017-Sep-20 15:58N 51°58' E 001°18'0 0.0
2017-Sep-20 15:28N 51°58' E 001°18'0 0.0
2017-Sep-20 14:58N 51°58' E 001°18'0 0.0
2017-Sep-20 13:58N 51°58' E 001°18'0 0.0
2017-Sep-20 13:28N 51°58' E 001°18'0 0.0
2017-Sep-20 12:58N 51°58' E 001°18'0 0.0
2017-Sep-20 12:28N 51°58' E 001°18'0 0.0
2017-Sep-20 11:58N 51°58' E 001°18'0 0.0
2017-Sep-20 11:28N 51°58' E 001°18'0 0.0
2017-Sep-20 10:58N 51°58' E 001°18'0 0.0
2017-Sep-20 10:28N 51°58' E 001°18'0 0.1
2017-Sep-20 10:00N 51°58' E 001°18'1 2.0
2017-Sep-20 09:31N 51°57' E 001°19'5 9.9
2017-Sep-20 09:00N 51°56' E 001°27'510.1
2017-Sep-20 08:30N 51°56' E 001°35'5 9.7
2017-Sep-20 08:01N 51°52' E 001°35'4 8.0
2017-Sep-20 07:31N 51°52' E 001°42'4 7.4
2017-Sep-20 07:00N 51°55' E 001°43'2 4.0
2017-Sep-20 06:31N 51°57' E 001°41'1 2.1
2017-Sep-20 06:01N 51°57' E 001°43'3 6.2
2017-Sep-20 05:30N 51°57' E 001°48'510.0
2017-Sep-20 05:00N 51°52' E 001°48'4 8.7
2017-Sep-20 04:30N 51°47' E 001°48'5 9.0
2017-Sep-20 04:00N 51°43' E 001°48'4 8.8
2017-Sep-20 03:30N 51°39' E 001°50'4 8.8
2017-Sep-20 03:00N 51°34' E 001°52'510.5
2017-Sep-20 02:30N 51°30' E 001°55'510.5
2017-Sep-20 02:01N 51°25' E 002°00'5 9.8
2017-Sep-20 01:30N 51°22' E 002°05'5 9.4
2017-Sep-20 01:00N 51°17' E 002°07'5 9.9
2017-Sep-20 00:30N 51°13' E 002°01'510.8
2017-Sep-20 00:00N 51°11' E 001°54'611.4
2017-Sep-19 23:31N 51°07' E 001°47'612.3
2017-Sep-19 23:01N 51°03' E 001°40'713.4
2017-Sep-19 22:30N 50°58' E 001°33'612.9
2017-Sep-19 22:00N 50°52' E 001°28'712.6
2017-Sep-19 21:29N 50°46' E 001°25'612.2
2017-Sep-19 20:58N 50°40' E 001°20'612.6
2017-Sep-19 20:30N 50°36' E 001°13'1212.5
2017-Sep-19 19:33N 50°29' E 000°59'112.4
2017-Sep-19 19:31N 50°29' E 000°58'612.9
2017-Sep-19 19:01N 50°27' E 000°48'713.6
2017-Sep-19 18:28N 50°25' E 000°37'613.2
2017-Sep-19 17:59N 50°24' E 000°27'612.8
2017-Sep-19 17:30N 50°22' E 000°18'713.0
2017-Sep-19 17:00N 50°20' E 000°08'713.6
2017-Sep-19 16:31N 50°19' W 000°02'714.0
2017-Sep-19 16:00N 50°17' W 000°13'3517.2
2017-Sep-19 13:58N 50°07' W 001°05'817.0
2017-Sep-19 13:31N 50°05' W 001°17'816.7
2017-Sep-19 13:00N 50°03' W 001°29'816.5
2017-Sep-19 12:30N 50°00' W 001°41'815.8
2017-Sep-19 12:01N 49°59' W 001°54'713.7
2017-Sep-19 11:31N 49°57' W 002°04'714.0
2017-Sep-19 11:00N 49°55' W 002°14'914.0
2017-Sep-19 10:22N 49°53' W 002°28'514.1
2017-Sep-19 10:00N 49°52' W 002°35'714.4
2017-Sep-19 09:30N 49°50' W 002°46'714.6
2017-Sep-19 09:00N 49°48' W 002°57'714.8
2017-Sep-19 08:30N 49°45' W 003°07'714.8
2017-Sep-19 08:00N 49°41' W 003°17'714.9
2017-Sep-19 07:30N 49°37' W 003°27'815.0
2017-Sep-19 06:59N 49°33' W 003°37'715.1
2017-Sep-19 06:30N 49°29' W 003°47'815.3
2017-Sep-19 06:00N 49°25' W 003°56'915.4
2017-Sep-19 05:25N 49°20' W 004°08'615.7
2017-Sep-19 05:00N 49°16' W 004°16'2216.1
2017-Sep-19 03:39N 49°05' W 004°45'216.4
2017-Sep-19 03:30N 49°04' W 004°48'816.4
2017-Sep-19 03:00N 49°00' W 004°59'816.3
2017-Sep-19 02:30N 48°56' W 005°10'816.2
2017-Sep-19 02:00N 48°52' W 005°21'816.0
2017-Sep-19 01:30N 48°48' W 005°31'815.5
2017-Sep-19 01:00N 48°43' W 005°40'815.4
2017-Sep-19 00:30N 48°36' W 005°45'57615.6
2017-Sep-17 11:28N 39°27' W 009°49'816.5
2017-Sep-17 11:00N 39°19' W 009°50'816.7
2017-Sep-17 10:30N 39°11' W 009°50'816.4
2017-Sep-17 10:00N 39°03' W 009°51'816.4
2017-Sep-17 09:30N 38°55' W 009°51'816.5
2017-Sep-17 09:00N 38°46' W 009°51'816.4
2017-Sep-17 08:30N 38°38' W 009°49'815.9
2017-Sep-17 08:00N 38°31' W 009°46'816.0
2017-Sep-17 07:30N 38°24' W 009°41'816.4
2017-Sep-17 07:00N 38°18' W 009°33'816.2
2017-Sep-17 06:30N 38°13' W 009°25'816.3
2017-Sep-17 06:00N 38°08' W 009°17'816.3
2017-Sep-17 05:30N 38°03' W 009°09'816.8
2017-Sep-17 05:00N 37°58' W 009°01'815.0
2017-Sep-17 04:30N 37°54' W 008°52'2 3.8
2017-Sep-17 03:58N 37°56' W 008°51'0 0.0
2017-Sep-17 03:28N 37°56' W 008°51'0 0.0
2017-Sep-17 02:58N 37°56' W 008°51'0 0.0
2017-Sep-17 02:28N 37°56' W 008°51'0 0.0
2017-Sep-17 01:58N 37°56' W 008°51'0 0.0
2017-Sep-17 01:28N 37°56' W 008°51'0 0.0
2017-Sep-17 00:58N 37°56' W 008°51'0 0.0
2017-Sep-17 00:28N 37°56' W 008°51'0 0.0
2017-Sep-16 23:58N 37°56' W 008°51'0 0.1
2017-Sep-16 23:30N 37°56' W 008°51'1 2.5
2017-Sep-16 23:00N 37°55' W 008°51'2 3.1
2017-Sep-16 22:30N 37°53' W 008°51'2 4.9
2017-Sep-16 22:00N 37°52' W 008°54'3 5.3
2017-Sep-16 21:30N 37°49' W 008°55'3 5.8
2017-Sep-16 21:00N 37°47' W 008°57'3 5.6
2017-Sep-16 20:30N 37°44' W 008°59'3 5.8
2017-Sep-16 20:00N 37°42' W 009°00'611.4
2017-Sep-16 19:30N 37°37' W 009°04'612.3
2017-Sep-16 19:00N 37°31' W 009°07'612.5
2017-Sep-16 18:30N 37°26' W 009°10'612.2
2017-Sep-16 18:00N 37°20' W 009°14'612.2
2017-Sep-16 17:30N 37°15' W 009°18'612.2
2017-Sep-16 17:00N 37°09' W 009°20'612.6
2017-Sep-16 16:30N 37°03' W 009°20'712.5
2017-Sep-16 15:57N 36°56' W 009°20'912.5
2017-Sep-16 15:14N 36°48' W 009°14'713.2
2017-Sep-16 14:40N 36°44' W 009°07'313.9
2017-Sep-16 14:28N 36°43' W 009°04'613.9
2017-Sep-16 14:00N 36°41' W 008°56'713.7
2017-Sep-16 13:30N 36°39' W 008°48'713.7
2017-Sep-16 13:00N 36°36' W 008°40'714.1
2017-Sep-16 12:30N 36°34' W 008°32'815.0
2017-Sep-16 12:00N 36°32' W 008°23'715.0
2017-Sep-16 11:30N 36°29' W 008°14'1214.9
2017-Sep-16 10:43N 36°26' W 007°60'1517.0
2017-Sep-16 09:49N 36°22' W 007°42'10419.0
2017-Sep-16 04:22N 35°58' W 005°36'412.1
2017-Sep-16 04:00N 35°59' W 005°31'612.1
2017-Sep-16 03:30N 36°01' W 005°24'713.3
2017-Sep-16 03:00N 36°02' W 005°16'815.8
2017-Sep-16 02:30N 36°04' W 005°06'25718.1
2017-Sep-15 12:17N 36°42' E 000°09'718.6
2017-Sep-15 11:56N 36°43' E 000°17'919.1
2017-Sep-15 11:27N 36°45' E 000°28'5816.9
2017-Sep-15 07:59N 36°56' E 001°40'1317.1
2017-Sep-15 07:14N 36°59' E 001°56'2119.7
2017-Sep-15 06:09N 37°02' E 002°22'519.7
2017-Sep-15 05:54N 37°03' E 002°28'919.7
2017-Sep-15 05:28N 37°05' E 002°39'26520.0
2017-Sep-14 16:14N 37°41' E 008°10'1020.8
2017-Sep-14 15:45N 37°41' E 008°22'720.6
2017-Sep-14 15:24N 37°41' E 008°31'820.3
2017-Sep-14 15:00N 37°42' E 008°42'1420.0
2017-Sep-14 14:18N 37°42' E 008°59'1520.0
2017-Sep-14 13:34N 37°42' E 009°18'2519.8
2017-Sep-14 12:19N 37°41' E 009°49'3919.9
2017-Sep-14 10:21N 37°35' E 010°38'10120.1
2017-Sep-14 05:20N 36°59' E 012°36'619.5
2017-Sep-14 05:01N 36°57' E 012°44'1019.2
2017-Sep-14 04:30N 36°53' E 012°55'1019.6
2017-Sep-14 04:00N 36°49' E 013°06'1019.5
2017-Sep-14 03:30N 36°45' E 013°17'1019.5
2017-Sep-14 03:00N 36°41' E 013°28'1019.4
2017-Sep-14 02:30N 36°37' E 013°39'919.3
2017-Sep-14 02:00N 36°34' E 013°50'1019.2
2017-Sep-14 01:30N 36°32' E 014°02'919.1
2017-Sep-14 01:00N 36°29' E 014°13'1019.2
2017-Sep-14 00:30N 36°25' E 014°24'1019.4
2017-Sep-14 00:00N 36°22' E 014°36'1019.4
2017-Sep-13 23:30N 36°19' E 014°47'1019.5
2017-Sep-13 23:00N 36°15' E 014°58'1019.8
2017-Sep-13 22:30N 36°14' E 015°11'1020.2
2017-Sep-13 22:00N 36°14' E 015°23'1020.3
2017-Sep-13 21:30N 36°14' E 015°36'1020.3
2017-Sep-13 21:00N 36°13' E 015°48'1020.2
2017-Sep-13 20:30N 36°13' E 016°01'1020.2
2017-Sep-13 20:00N 36°13' E 016°13'2719.7
2017-Sep-13 18:38N 36°12' E 016°47'219.9
2017-Sep-13 18:30N 36°12' E 016°50'1319.9
2017-Sep-13 17:51N 36°10' E 017°06'1019.9
2017-Sep-13 17:20N 36°10' E 017°19'1120.2
2017-Sep-13 16:47N 36°10' E 017°32'31016.3
2017-Sep-12 21:47N 37°29' E 023°48'620.7
2017-Sep-12 21:30N 37°34' E 023°45'1020.6
2017-Sep-12 21:00N 37°44' E 023°40'1019.7
2017-Sep-12 20:30N 37°53' E 023°36'4 8.3
2017-Sep-12 19:59N 37°57' E 023°36'0 0.0
2017-Sep-12 19:29N 37°57' E 023°36'0 0.0
2017-Sep-12 18:59N 37°57' E 023°36'0 0.0
2017-Sep-12 18:29N 37°57' E 023°36'0 0.0
2017-Sep-12 17:59N 37°57' E 023°36'0 0.0
2017-Sep-12 17:29N 37°57' E 023°36'0 0.0
2017-Sep-12 16:59N 37°57' E 023°36'0 0.0
2017-Sep-12 16:29N 37°57' E 023°36'0 0.0
2017-Sep-12 15:59N 37°57' E 023°36'0 0.0
2017-Sep-12 15:29N 37°57' E 023°36'0 0.0
2017-Sep-12 14:59N 37°57' E 023°36'0 0.0
2017-Sep-12 14:29N 37°57' E 023°36'0 0.0
2017-Sep-12 13:59N 37°57' E 023°36'0 0.0
2017-Sep-12 13:29N 37°57' E 023°36'0 0.0
2017-Sep-12 12:59N 37°57' E 023°36'0 0.0
2017-Sep-12 12:29N 37°57' E 023°36'0 0.0
2017-Sep-12 11:59N 37°57' E 023°36'0 0.0
2017-Sep-12 11:29N 37°57' E 023°36'0 0.0
2017-Sep-12 10:59N 37°57' E 023°36'0 0.0
2017-Sep-12 10:29N 37°57' E 023°36'0 0.0
2017-Sep-12 09:59N 37°57' E 023°36'0 0.0
2017-Sep-12 09:29N 37°57' E 023°36'0 0.0
2017-Sep-12 08:59N 37°57' E 023°36'0 0.0
2017-Sep-12 08:29N 37°57' E 023°36'0 0.0
2017-Sep-12 07:59N 37°57' E 023°36'0 0.1
2017-Sep-12 07:29N 37°57' E 023°36'0 0.1
2017-Sep-12 06:59N 37°57' E 023°36'0 0.0
2017-Sep-12 06:30N 37°57' E 023°36'0 0.8
2017-Sep-12 06:00N 37°57' E 023°36'2 4.8
2017-Sep-12 05:30N 37°54' E 023°36'1 1.5
2017-Sep-12 05:00N 37°54' E 023°36'0 0.4
2017-Sep-12 04:30N 37°54' E 023°35'2 3.6
2017-Sep-12 04:00N 37°52' E 023°34'2 3.9
2017-Sep-12 03:29N 37°53' E 023°31'0 0.2
2017-Sep-12 02:59N 37°53' E 023°31'0 0.1
2017-Sep-12 02:29N 37°53' E 023°31'0 0.0
2017-Sep-12 01:59N 37°53' E 023°31'0 0.1
2017-Sep-12 01:29N 37°53' E 023°31'0 0.0
2017-Sep-12 00:59N 37°53' E 023°31'0 0.1
2017-Sep-12 00:29N 37°53' E 023°31'0 0.1
2017-Sep-11 23:59N 37°53' E 023°31'0 0.0
2017-Sep-11 23:29N 37°53' E 023°31'0 0.1
2017-Sep-11 22:59N 37°53' E 023°31'0 0.4
2017-Sep-11 22:29N 37°53' E 023°31'0 0.4
2017-Sep-11 21:59N 37°53' E 023°31'0 0.0
2017-Sep-11 21:29N 37°53' E 023°31'0 0.0
2017-Sep-11 20:59N 37°53' E 023°31'0 0.0
2017-Sep-11 20:29N 37°53' E 023°31'0 0.0
2017-Sep-11 19:59N 37°53' E 023°31'0 0.1
2017-Sep-11 19:29N 37°53' E 023°31'0 0.0
2017-Sep-11 18:59N 37°53' E 023°31'0 0.0
2017-Sep-11 18:29N 37°53' E 023°31'0 0.0
2017-Sep-11 17:59N 37°53' E 023°31'0 0.1
2017-Sep-11 17:29N 37°53' E 023°31'0 0.0
2017-Sep-11 16:59N 37°53' E 023°31'0 0.0
2017-Sep-11 16:29N 37°53' E 023°31'0 0.0
2017-Sep-11 15:59N 37°53' E 023°31'0 0.0
2017-Sep-11 15:29N 37°53' E 023°31'0 0.1
2017-Sep-11 14:59N 37°53' E 023°31'0 0.0
2017-Sep-11 14:29N 37°53' E 023°31'0 0.0
2017-Sep-11 13:59N 37°53' E 023°31'0 0.0
2017-Sep-11 13:29N 37°53' E 023°31'0 0.1
2017-Sep-11 12:59N 37°53' E 023°31'0 0.0
2017-Sep-11 12:29N 37°53' E 023°31'0 0.0
2017-Sep-11 11:59N 37°53' E 023°31'0 0.0
2017-Sep-11 11:29N 37°53' E 023°31'0 0.0
2017-Sep-11 10:59N 37°53' E 023°31'0 0.0
2017-Sep-11 10:29N 37°53' E 023°31'0 0.0
2017-Sep-11 09:59N 37°53' E 023°31'0 0.1
2017-Sep-11 09:29N 37°53' E 023°31'0 0.0
2017-Sep-11 08:59N 37°53' E 023°31'0 0.0
2017-Sep-11 08:29N 37°53' E 023°31'0 0.0
2017-Sep-11 07:59N 37°53' E 023°31'0 0.0
2017-Sep-11 07:29N 37°53' E 023°31'0 0.0
2017-Sep-11 06:59N 37°53' E 023°31'0 0.1
2017-Sep-11 06:29N 37°53' E 023°31'0 0.0
2017-Sep-11 05:59N 37°53' E 023°31'0 0.0
2017-Sep-11 05:29N 37°53' E 023°31'0 0.0
2017-Sep-11 04:59N 37°53' E 023°31'0 0.0
2017-Sep-11 04:29N 37°53' E 023°31'0 0.0
2017-Sep-11 03:59N 37°53' E 023°31'0 0.1
2017-Sep-11 03:29N 37°53' E 023°31'0 0.0
2017-Sep-11 02:59N 37°53' E 023°31'0 0.0
2017-Sep-11 02:29N 37°53' E 023°31'0 0.0
2017-Sep-11 01:59N 37°53' E 023°31'0 0.1
2017-Sep-11 01:29N 37°53' E 023°31'0 0.0
2017-Sep-11 00:59N 37°53' E 023°31'0 0.0
2017-Sep-11 00:29N 37°53' E 023°31'0 0.0
2017-Sep-10 23:59N 37°53' E 023°31'0 0.1
2017-Sep-10 23:29N 37°53' E 023°31'0 0.1
2017-Sep-10 22:59N 37°53' E 023°31'0 0.0
2017-Sep-10 22:29N 37°53' E 023°31'0 0.0
2017-Sep-10 21:59N 37°53' E 023°31'0 0.0
2017-Sep-10 21:29N 37°53' E 023°31'0 0.1
2017-Sep-10 20:59N 37°53' E 023°31'0 0.0
2017-Sep-10 20:29N 37°53' E 023°31'0 0.0
2017-Sep-10 19:59N 37°53' E 023°31'0 0.0
2017-Sep-10 19:29N 37°53' E 023°31'0 0.0
2017-Sep-10 18:59N 37°53' E 023°31'0 0.0
2017-Sep-10 18:29N 37°53' E 023°31'  

Dump ship's entire track history